Página principal
METAR-TAF:

METAR-TAF

Aeroportos :

Kansas City, Missouri, Estados Unidos

Aeroporto Internacional de Kansas City

latitude: 39-17-50N, longitude: 094-43-50W, altura: 312 m

Observação actual do tempo

O boletim foi feito há 9 minutos, às 15:53 UTC
Vento 8 kt de norte
Temperatura 21°C
Humidade 26%
Pressão 1020 hPa
Visibilidade: 16.1 km
Poucas nuvensa uma altura de 25000 ft

METAR: KMCI 241553Z 01008KT 10SM R19R/5500VP6000FT FEW250 21/01 A3013 RMK AO2 SLP198 T02060011 $

Hora: 11:02 (16:02 UTC)

Previsão

O boletim foi feito há 4 horas e 42 minutos, às 11:20 UTC
Previsão válida de 24 às 12 UTC a 25 às 12 UTC
Vento 5 kt de nor-nordeste
Visibilidade: 10 km
Céu limpo
A partir de 24 às 2300 UTC
Vento 5 kt de norte
Visibilidade: 10 km
Nuvens fragmentadasa uma altura de 20000 ft
A partir de 25 às 1000 UTC
Vento 5 kt de nor-nordeste
Visibilidade: 10 km
Encobertoa uma altura de 7000 ft

TAF: KMCI 241120Z 2412/2512 03005KT P6SM SKC FM242300 35005KT P6SM BKN200 FM251000 02005KT P6SM OVC070

Observações e previsões do tempo de mais de 4000 aeroportos (mensagens METAR e TAF).

As estações disponíveis são os pontos amarelos e vermelhos sobre o mapa.

Mova o rato sobre o mapa para ver o nome da estação.

Depois clique no ponto para visualizar as observações e previsões meteorológicas.

Para alterar o mapa : clique nos botões verdes com uma cruz preta para aumentar o zoom; no botão verde com uma pitada de zoom; ou nas setas verdes para mapas adjacentes.


METAR-TAF: